Time;durP1;ratioP1;P1;durP2;ratioP2;P2;SDS_P1;SDS_P2;PMS_P1;PMS_P2;Temp;Humidity;BMP_temperature;BMP_pressure;BME280_temperature;BME280_humidity;BME280_pressure;Samples;Min_cycle;Max_cycle;Signal;HPM_P1;HPM_P2
2021/03/10 00:01:48;;;;;;;18.42;5.18;;;;;;;-16.09;46.08;100401.69;5034307;28;20061;-60
2021/03/10 00:04:13;;;;;;;15.95;5.72;;;;;;;-16.06;46.00;100415.50;5050300;28;20029;-62
2021/03/10 00:06:39;;;;;;;11.65;4.82;;;;;;;-16.16;45.79;100401.47;5040950;28;20096;-60
2021/03/10 00:09:05;;;;;;;15.30;5.82;;;;;;;-16.12;46.21;100407.59;5043104;28;20053;-61
2021/03/10 00:11:31;;;;;;;12.50;5.45;;;;;;;-16.53;45.87;100353.94;5044611;28;20029;-63
2021/03/10 00:13:56;;;;;;;18.45;6.13;;;;;;;-16.12;46.21;100422.09;5050428;28;20127;-62
2021/03/10 00:16:22;;;;;;;14.25;5.30;;;;;;;-16.14;46.33;100421.16;5042824;28;20121;-63
2021/03/10 00:18:47;;;;;;;10.88;5.22;;;;;;;-16.15;45.78;100443.38;5040093;28;20057;-58
2021/03/10 00:21:13;;;;;;;14.90;6.00;;;;;;;-16.14;45.89;100421.16;5036498;28;20428;-61
2021/03/10 00:23:38;;;;;;;15.45;5.75;;;;;;;-16.24;45.92;100425.97;5029444;28;20029;-59
2021/03/10 00:26:04;;;;;;;11.45;4.72;;;;;;;-16.23;45.84;100419.13;5050396;28;20461;-62
2021/03/10 00:28:29;;;;;;;14.43;6.03;;;;;;;-16.29;46.40;100422.31;5042458;28;20033;-62
2021/03/10 00:30:55;;;;;;;13.13;5.43;;;;;;;-16.29;46.20;100421.47;5023441;28;20404;-63
2021/03/10 00:33:20;;;;;;;12.85;5.00;;;;;;;-16.47;46.40;100394.31;5035267;28;20033;-60
2021/03/10 00:35:45;;;;;;;16.05;6.90;;;;;;;-16.48;46.43;100415.63;5046223;28;20033;-58
2021/03/10 00:38:11;;;;;;;13.25;6.13;;;;;;;-16.35;46.54;100430.69;5037908;28;20115;-63
2021/03/10 00:40:36;;;;;;;16.40;6.78;;;;;;;-16.40;46.57;100437.28;5050698;28;20043;-62
2021/03/10 00:43:02;;;;;;;17.33;5.97;;;;;;;-16.61;46.60;100402.34;5056097;28;20448;-62
2021/03/10 00:45:27;;;;;;;14.85;5.53;;;;;;;-16.43;46.96;100428.63;5050816;28;20115;-62
2021/03/10 00:47:57;;;;;;;15.65;5.63;;;;;;;-16.45;46.77;100442.25;5058526;28;20044;-63
2021/03/10 00:50:22;;;;;;;12.13;5.22;;;;;;;-16.61;46.82;100417.72;5048400;28;20032;-61
2021/03/10 00:52:48;;;;;;;18.38;5.03;;;;;;;-16.49;46.54;100434.38;5031824;28;20035;-60
2021/03/10 00:55:14;;;;;;;12.98;4.85;;;;;;;-16.68;46.89;100400.34;5049116;28;20033;-59
2021/03/10 00:57:40;;;;;;;12.55;5.50;;;;;;;-16.54;46.64;100433.34;5049576;28;20552;-56
2021/03/10 01:00:07;;;;;;;14.70;5.05;;;;;;;-16.55;46.50;100444.41;5049715;28;20127;-61
2021/03/10 01:02:33;;;;;;;19.33;6.28;;;;;;;-16.92;46.99;100388.31;5049199;28;20431;-61
2021/03/10 01:04:58;;;;;;;14.45;5.82;;;;;;;-16.94;47.00;100374.59;5049335;28;20063;-61
2021/03/10 01:07:24;;;;;;;12.02;4.88;;;;;;;-16.60;46.86;100447.69;5016571;28;20120;-62
2021/03/10 01:09:49;;;;;;;13.93;5.68;;;;;;;-16.62;46.85;100435.59;5046212;28;20033;-60
2021/03/10 01:12:14;;;;;;;16.67;6.00;;;;;;;-16.67;47.27;100437.97;5038896;28;20029;-55
2021/03/10 01:14:40;;;;;;;13.25;5.55;;;;;;;-16.77;47.12;100421.34;5039877;28;20523;-61
2021/03/10 01:17:06;;;;;;;16.92;6.20;;;;;;;-16.67;47.03;100448.22;5042380;28;20508;-60
2021/03/10 01:19:31;;;;;;;12.50;5.72;;;;;;;-16.69;46.67;100443.88;5049464;28;20036;-62
2021/03/10 01:21:57;;;;;;;13.68;5.88;;;;;;;-17.24;46.97;100367.47;5032786;28;20036;-61
2021/03/10 01:24:22;;;;;;;13.90;5.47;;;;;;;-16.83;47.34;100438.19;5042959;28;20029;-62
2021/03/10 01:26:47;;;;;;;13.75;5.65;;;;;;;-16.76;47.25;100456.41;5041435;28;20028;-62
2021/03/10 01:29:13;;;;;;;14.20;6.35;;;;;;;-16.79;47.48;100463.13;5052829;28;20108;-61
2021/03/10 01:31:38;;;;;;;12.02;5.35;;;;;;;-16.83;47.13;100466.38;5036977;28;20396;-58
2021/03/10 01:34:04;;;;;;;14.75;5.47;;;;;;;-16.85;47.32;100468.88;5049617;28;20037;-58
2021/03/10 01:36:29;;;;;;;12.95;5.55;;;;;;;-16.85;47.44;100468.88;5041416;28;20033;-62
2021/03/10 01:38:55;;;;;;;11.75;5.95;;;;;;;-16.86;47.56;100476.50;5050811;28;20048;-62
2021/03/10 01:41:20;;;;;;;20.23;7.07;;;;;;;-16.95;47.52;100461.63;5038271;28;20041;-63
2021/03/10 01:43:46;;;;;;;16.30;5.95;;;;;;;-16.96;47.97;100470.13;5052513;28;20087;-60
2021/03/10 01:46:11;;;;;;;17.60;6.60;;;;;;;-17.09;47.79;100453.41;5047658;28;20111;-63
2021/03/10 01:48:37;;;;;;;16.00;5.47;;;;;;;-16.96;47.53;100480.38;5042028;28;20040;-60
2021/03/10 01:51:06;;;;;;;12.80;6.05;;;;;;;-16.95;47.60;100482.97;5045619;28;20025;-59
2021/03/10 01:53:33;;;;;;;14.13;5.65;;;;;;;-17.18;47.82;100461.59;5046162;28;20047;-57
2021/03/10 01:56:01;;;;;;;12.90;5.85;;;;;;;-17.00;47.69;100489.63;5043123;28;20032;-60
2021/03/10 01:58:26;;;;;;;19.48;5.50;;;;;;;-17.00;47.75;100499.88;5052560;28;20039;-59
2021/03/10 02:00:52;;;;;;;18.55;6.60;;;;;;;-17.22;47.65;100470.81;5052477;28;20115;-60
2021/03/10 02:03:17;;;;;;;23.92;6.30;;;;;;;-17.18;47.65;100470.13;5052583;28;20476;-59
2021/03/10 02:05:43;;;;;;;14.80;5.50;;;;;;;-17.07;47.72;100503.00;5035978;28;20041;-61
2021/03/10 02:08:24;;;;;;;13.90;6.15;;;;;;;-17.09;48.28;100499.50;5052869;28;20044;-58
2021/03/10 02:11:07;;;;;;;27.58;5.90;;;;;;;-17.15;48.11;100495.00;5052299;28;20508;-61
2021/03/10 02:14:03;;;;;;;18.42;6.28;;;;;;;-17.37;48.27;100465.03;5052509;28;20048;-61
2021/03/10 02:16:47;;;;;;;16.30;5.53;;;;;;;-17.21;47.97;100510.97;5039821;28;20037;-57
2021/03/10 02:19:27;;;;;;;21.70;5.80;;;;;;;-17.21;48.08;100510.09;5052513;28;20040;-62
2021/03/10 02:22:14;;;;;;;11.98;5.22;;;;;;;-17.27;48.03;100505.59;5049459;28;20408;-62
2021/03/10 02:24:57;;;;;;;16.77;5.47;;;;;;;-17.38;47.96;100501.66;5041720;28;20047;-58
2021/03/10 02:27:59;;;;;;;11.43;5.07;;;;;;;-17.30;48.24;100518.25;5048497;28;20039;-61
2021/03/10 02:30:38;;;;;;;13.07;5.53;;;;;;;-17.33;48.03;100528.38;5041813;28;20029;-61
2021/03/10 02:33:13;;;;;;;13.52;5.20;;;;;;;-17.35;47.74;100524.88;5044967;28;20040;-61
2021/03/10 02:35:46;;;;;;;13.32;5.20;;;;;;;-17.41;48.70;100533.16;5051369;28;20403;-59
2021/03/10 02:38:19;;;;;;;15.57;5.07;;;;;;;-17.39;48.37;100546.88;5036993;28;20029;-59
2021/03/10 02:40:46;;;;;;;12.73;5.22;;;;;;;-17.39;48.14;100544.31;5042289;28;20504;-59
2021/03/10 02:43:13;;;;;;;17.23;5.53;;;;;;;-17.58;47.92;100514.50;5050773;28;20037;-60
2021/03/10 02:45:40;;;;;;;10.23;5.03;;;;;;;-17.46;48.51;100542.31;5035126;28;20076;-62
2021/03/10 02:48:07;;;;;;;13.30;4.97;;;;;;;-17.49;48.32;100547.28;5051910;28;20550;-58
2021/03/10 02:50:34;;;;;;;12.73;5.43;;;;;;;-17.47;48.51;100546.53;5043799;28;20036;-62
2021/03/10 02:53:04;;;;;;;12.95;5.13;;;;;;;-17.51;48.48;100562.56;5043682;28;20203;-58
2021/03/10 02:55:31;;;;;;;17.45;5.05;;;;;;;-17.52;48.30;100544.56;5049800;28;20459;-57
2021/03/10 02:57:57;;;;;;;12.00;5.35;;;;;;;-17.52;48.61;100548.03;5050962;28;20043;-60
2021/03/10 03:00:24;;;;;;;11.63;5.22;;;;;;;-17.53;48.29;100563.31;5051794;28;20043;-59
2021/03/10 03:02:49;;;;;;;17.88;5.43;;;;;;;-17.56;48.51;100574.28;5040579;28;20551;-61
2021/03/10 03:05:15;;;;;;;12.68;4.78;;;;;;;-17.69;48.33;100536.16;5027574;28;20044;-60
2021/03/10 03:07:43;;;;;;;14.13;6.30;;;;;;;-17.65;48.17;100551.72;5050429;28;20076;-58
2021/03/10 03:10:14;;;;;;;16.80;5.03;;;;;;;-18.22;48.80;100462.22;5051289;28;20041;-55
2021/03/10 03:12:41;;;;;;;13.98;5.55;;;;;;;-17.72;48.63;100553.94;5051432;28;20488;-58
2021/03/10 03:15:09;;;;;;;11.07;4.25;;;;;;;-17.83;48.86;100530.41;5050217;28;20365;-61
2021/03/10 03:17:35;;;;;;;15.35;5.55;;;;;;;-17.69;48.69;100559.19;5050790;28;20493;-60
2021/03/10 03:20:03;;;;;;;15.75;4.97;;;;;;;-17.66;48.16;100588.34;5031802;28;20123;-58
2021/03/10 03:22:28;;;;;;;17.52;5.53;;;;;;;-17.65;48.92;100589.22;5050462;28;20090;-59
2021/03/10 03:24:54;;;;;;;13.88;5.32;;;;;;;-17.70;49.13;100573.66;5051068;28;20033;-59
2021/03/10 03:27:26;;;;;;;17.65;6.35;;;;;;;-17.74;48.80;100579.41;5051096;28;20408;-56
2021/03/10 03:29:57;;;;;;;15.88;6.00;;;;;;;-17.72;48.84;100582.06;5038596;28;20451;-62
2021/03/10 03:32:28;;;;;;;17.30;5.50;;;;;;;-17.87;48.63;100554.97;5043290;28;20086;-58
2021/03/10 03:34:55;;;;;;;16.00;4.85;;;;;;;-17.73;48.52;100586.28;5042719;28;20064;-59
2021/03/10 03:37:23;;;;;;;16.15;5.70;;;;;;;-17.77;48.76;100585.28;5050389;28;20033;-57
2021/03/10 03:39:49;;;;;;;16.45;5.60;;;;;;;-17.78;48.84;100591.22;5050124;28;20120;-63
2021/03/10 03:42:16;;;;;;;14.95;5.55;;;;;;;-17.78;48.54;100590.31;5033942;28;20087;-61
2021/03/10 03:44:42;;;;;;;18.33;5.57;;;;;;;-17.78;49.02;100603.13;5056624;28;20052;-60
2021/03/10 03:47:08;;;;;;;14.13;5.65;;;;;;;-17.87;48.96;100584.78;5050796;28;20040;-57
2021/03/10 03:49:35;;;;;;;18.02;4.60;;;;;;;-17.99;49.02;100570.63;5034863;28;20037;-59
2021/03/10 03:52:01;;;;;;;11.90;4.30;;;;;;;-17.84;48.83;100593.50;5048241;28;20025;-61
2021/03/10 03:54:26;;;;;;;12.68;5.65;;;;;;;-17.82;48.65;100594.44;5048152;28;20515;-62
2021/03/10 03:56:51;;;;;;;9.93;4.85;;;;;;;-17.99;48.59;100577.44;5046997;28;20124;-61
2021/03/10 03:59:17;;;;;;;12.02;5.07;;;;;;;-17.84;48.93;100607.94;5049398;28;20124;-56
2021/03/10 04:01:42;;;;;;;15.23;5.50;;;;;;;-17.83;48.56;100612.25;5047464;28;20111;-59
2021/03/10 04:04:08;;;;;;;15.50;5.63;;;;;;;-17.92;48.60;100603.38;5048835;28;20029;-59
2021/03/10 04:06:33;;;;;;;14.32;5.30;;;;;;;-18.01;48.68;100581.63;5048514;28;20098;-62
2021/03/10 04:08:59;;;;;;;17.70;6.05;;;;;;;-17.80;48.73;100630.31;5048278;28;20043;-60
2021/03/10 04:11:24;;;;;;;12.68;5.03;;;;;;;-17.76;48.75;100620.31;5047096;28;20037;-62
2021/03/10 04:13:50;;;;;;;14.23;5.13;;;;;;;-17.78;48.59;100618.47;5032153;28;20029;-62
2021/03/10 04:16:15;;;;;;;16.80;5.55;;;;;;;-17.73;49.00;100634.91;5047546;28;20123;-60
2021/03/10 04:18:41;;;;;;;14.15;6.05;;;;;;;-17.65;48.65;100638.72;5050539;28;20032;-58
2021/03/10 04:21:07;;;;;;;11.05;4.45;;;;;;;-17.62;48.39;100632.84;5050597;28;20029;-56
2021/03/10 04:23:34;;;;;;;12.45;4.70;;;;;;;-17.54;48.72;100633.19;5031943;28;20048;-59
2021/03/10 04:25:59;;;;;;;12.82;5.35;;;;;;;-17.47;48.44;100635.25;5033597;28;20036;-60
2021/03/10 04:28:25;;;;;;;15.77;5.18;;;;;;;-17.40;48.04;100636.38;5050523;28;20560;-58
2021/03/10 04:30:51;;;;;;;15.50;6.22;;;;;;;-17.29;47.86;100644.56;5039067;28;20040;-58
2021/03/10 04:33:16;;;;;;;16.00;4.70;;;;;;;-17.22;47.98;100644.91;5044209;28;20025;-58
2021/03/10 04:35:41;;;;;;;19.52;5.38;;;;;;;-17.12;47.56;100625.72;5047639;28;20033;-60
2021/03/10 04:38:07;;;;;;;14.55;5.40;;;;;;;-16.96;47.62;100634.91;5050329;28;20119;-61
2021/03/10 04:40:32;;;;;;;16.15;5.20;;;;;;;-16.23;46.75;100634.53;5041635;28;20069;-59
2021/03/10 04:42:58;;;;;;;18.63;6.00;;;;;;;-14.98;45.22;100642.69;5043397;28;20110;-59
2021/03/10 04:45:23;;;;;;;16.60;6.70;;;;;;;-13.88;42.45;100642.06;5050059;28;20538;-62
2021/03/10 04:47:49;;;;;;;15.50;6.00;;;;;;;-13.74;41.33;100629.69;5042881;28;20040;-60
2021/03/10 04:50:16;;;;;;;13.65;6.22;;;;;;;-13.94;41.30;100638.47;5049560;28;20029;-59
2021/03/10 04:52:43;;;;;;;15.68;6.18;;;;;;;-14.49;41.77;100605.81;5040015;28;20037;-57
2021/03/10 04:55:10;;;;;;;15.35;6.55;;;;;;;-14.87;41.80;100588.28;5041885;28;20067;-54
2021/03/10 04:57:37;;;;;;;14.50;6.28;;;;;;;-14.65;42.36;100657.53;5048861;28;20040;-60
2021/03/10 05:00:08;;;;;;;19.58;7.13;;;;;;;-13.97;42.53;100657.25;5047087;28;20033;-60
2021/03/10 05:02:34;;;;;;;15.48;6.47;;;;;;;-11.73;39.78;100648.78;5049052;28;20040;-64
2021/03/10 05:05:00;;;;;;;17.10;6.47;;;;;;;-10.06;35.93;100558.81;5049111;28;20033;-61
2021/03/10 05:07:26;;;;;;;21.65;7.32;;;;;;;-7.58;33.21;100649.84;5049595;28;20056;-63
2021/03/10 05:09:51;;;;;;;17.58;7.13;;;;;;;-6.29;31.39;100580.03;5048582;28;20033;-63
2021/03/10 05:12:17;;;;;;;17.90;7.53;;;;;;;-4.39;29.45;100640.47;5049132;28;20056;-62
2021/03/10 05:14:42;;;;;;;18.25;6.60;;;;;;;-3.05;28.20;100647.19;5039603;28;20083;-61
2021/03/10 05:17:08;;;;;;;14.57;6.78;;;;;;;-2.00;27.04;100647.56;5042962;28;20146;-61
2021/03/10 05:19:33;;;;;;;15.77;6.35;;;;;;;-1.21;26.00;100645.34;5045357;28;20123;-62
2021/03/10 05:21:59;;;;;;;14.00;6.05;;;;;;;-1.02;25.29;100654.63;5032808;28;20497;-56
2021/03/10 05:24:24;;;;;;;13.68;6.68;;;;;;;-0.64;23.97;100624.97;5049272;28;21351;-59
2021/03/10 05:26:50;;;;;;;14.18;6.72;;;;;;;0.03;23.46;100645.44;5049247;28;20044;-61
2021/03/10 05:29:15;;;;;;;15.10;7.57;;;;;;;0.53;22.64;100626.63;5048518;28;20542;-59
2021/03/10 05:31:41;;;;;;;15.40;7.57;;;;;;;1.02;22.13;100662.25;5048865;28;20128;-61
2021/03/10 05:34:06;;;;;;;13.57;6.43;;;;;;;1.54;21.97;100651.97;5044901;28;20061;-61
2021/03/10 05:36:32;;;;;;;14.43;7.18;;;;;;;2.32;20.32;100668.94;5036895;28;20039;-62
2021/03/10 05:38:57;;;;;;;12.25;6.65;;;;;;;2.73;19.67;100664.03;5037078;28;20048;-61
2021/03/10 05:41:23;;;;;;;15.73;7.03;;;;;;;3.10;19.83;100668.94;5047973;28;20040;-61
2021/03/10 05:43:48;;;;;;;17.20;7.20;;;;;;;3.69;19.04;100666.78;5048512;28;20044;-60
2021/03/10 05:46:14;;;;;;;13.43;6.80;;;;;;;4.00;17.99;100663.81;5043522;28;20095;-62
2021/03/10 05:48:39;;;;;;;12.30;7.22;;;;;;;4.45;17.56;100685.84;5045609;28;20412;-58
2021/03/10 05:51:06;;;;;;;12.10;7.22;;;;;;;4.97;17.71;100687.22;5046715;28;20029;-58
2021/03/10 05:53:37;;;;;;;12.95;7.22;;;;;;;5.70;16.30;100669.84;5047041;28;20040;-62
2021/03/10 05:56:04;;;;;;;15.88;7.72;;;;;;;6.44;16.43;100681.44;5046360;28;20496;-54
2021/03/10 05:58:30;;;;;;;13.55;7.88;;;;;;;6.67;15.65;100693.56;5046384;28;20127;-63
2021/03/10 06:00:55;;;;;;;14.95;7.50;;;;;;;6.51;15.58;100687.28;5029510;28;20119;-61
2021/03/10 06:03:21;;;;;;;12.93;7.55;;;;;;;6.85;15.29;100697.09;5029043;28;20059;-61
2021/03/10 06:05:58;;;;;;;13.23;7.65;;;;;;;7.44;14.25;100702.03;5047480;28;20017;-67
2021/03/10 06:08:30;;;;;;;12.15;7.15;;;;;;;8.08;14.11;100679.03;5046492;28;20060;-63
2021/03/10 06:10:56;;;;;;;12.55;7.35;;;;;;;8.65;13.76;100710.50;5039425;28;20083;-63
2021/03/10 06:13:24;;;;;;;11.27;7.00;;;;;;;8.89;13.46;100699.34;5045921;28;20110;-62
2021/03/10 06:15:52;;;;;;;13.73;6.95;;;;;;;9.30;12.95;100701.31;5033900;28;20029;-65
2021/03/10 06:18:28;;;;;;;16.30;7.93;;;;;;;9.77;12.21;100695.78;5045669;28;20039;-65
2021/03/10 06:21:02;;;;;;;;;;;;;;;11.30;13.23;100702.75;5039122;28;20039;-65
2021/03/10 06:23:28;;;;;;;11.35;7.07;;;;;;;11.14;11.92;100697.59;5052033;28;19912;-64
2021/03/10 06:25:53;;;;;;;13.98;8.30;;;;;;;10.95;11.84;100684.56;5050747;28;20075;-65
2021/03/10 06:28:19;;;;;;;13.23;6.72;;;;;;;10.82;11.91;100704.19;5052031;28;20464;-66
2021/03/10 06:30:48;;;;;;;10.70;6.78;;;;;;;11.37;11.22;100711.22;5048078;28;20049;-65
2021/03/10 06:33:21;;;;;;;13.75;7.85;;;;;;;11.95;9.66;100719.63;5047609;28;20068;-64
2021/03/10 06:35:47;;;;;;;13.60;7.32;;;;;;;12.12;10.48;100720.25;5045424;28;20087;-62
2021/03/10 06:38:18;;;;;;;10.57;6.63;;;;;;;12.05;10.03;100693.84;5051650;28;20057;-66
2021/03/10 06:40:57;;;;;;;11.50;7.03;;;;;;;12.98;10.23;100733.63;5033044;28;20029;-66
2021/03/10 06:43:52;;;;;;;13.30;7.45;;;;;;;13.79;10.32;100730.97;5041211;28;20072;-65
2021/03/10 06:46:18;;;;;;;11.52;7.32;;;;;;;14.08;9.63;100727.75;5030779;28;20505;-64
2021/03/10 06:48:54;;;;;;;10.75;6.60;;;;;;;14.45;8.69;100727.41;5052043;28;20033;-63
2021/03/10 06:51:20;;;;;;;10.13;6.60;;;;;;;14.72;8.94;100725.28;5052532;28;20115;-62
2021/03/10 06:53:46;;;;;;;9.45;6.50;;;;;;;14.92;8.78;100731.69;5052362;28;20531;-64
2021/03/10 06:56:27;;;;;;;13.68;6.95;;;;;;;15.83;8.07;100725.69;5052515;28;20510;-64
2021/03/10 06:59:02;;;;;;;11.88;7.22;;;;;;;16.10;7.86;100726.94;5052497;28;20409;-63
2021/03/10 07:01:37;;;;;;;10.73;7.25;;;;;;;16.39;7.24;100723.44;5052785;28;20041;-61
2021/03/10 07:04:03;;;;;;;10.68;6.88;;;;;;;16.23;7.93;100734.81;5052390;28;20068;-61
2021/03/10 07:06:30;;;;;;;9.35;6.25;;;;;;;16.53;7.58;100742.97;5051892;28;20060;-62
2021/03/10 07:08:58;;;;;;;10.43;5.82;;;;;;;16.75;7.42;100741.84;5051897;28;20508;-63
2021/03/10 07:11:24;;;;;;;12.52;6.38;;;;;;;16.48;7.15;100736.16;5052033;28;20436;-61
2021/03/10 07:13:50;;;;;;;8.13;6.20;;;;;;;16.17;7.02;100748.88;5051117;28;20029;-61
2021/03/10 07:16:16;;;;;;;10.73;6.47;;;;;;;16.19;7.40;100733.38;5051375;28;20465;-63
2021/03/10 07:18:43;;;;;;;10.23;6.75;;;;;;;16.48;6.99;100743.38;5051569;28;20120;-61
2021/03/10 07:21:11;;;;;;;8.02;6.13;;;;;;;17.10;6.86;100739.59;5052349;28;20127;-62
2021/03/10 07:23:43;;;;;;;11.75;7.07;;;;;;;17.55;6.02;100748.91;5051548;28;20032;-60
2021/03/10 07:26:12;;;;;;;10.85;6.53;;;;;;;17.22;6.24;100741.97;5051703;28;20037;-61
2021/03/10 07:28:38;;;;;;;7.82;5.25;;;;;;;16.78;6.45;100745.13;5051876;28;20123;-62
2021/03/10 07:31:04;;;;;;;8.05;6.20;;;;;;;17.07;6.59;100741.59;5052063;28;20029;-64
2021/03/10 07:33:30;;;;;;;8.77;6.13;;;;;;;17.33;6.34;100726.59;5051160;28;20045;-62
2021/03/10 07:36:00;;;;;;;9.60;6.30;;;;;;;17.07;6.10;100752.41;5051362;28;20048;-63
2021/03/10 07:38:34;;;;;;;9.50;6.45;;;;;;;17.11;6.56;100746.69;5051350;28;20408;-62
2021/03/10 07:41:08;;;;;;;9.35;5.70;;;;;;;16.45;6.01;100740.97;5051209;28;20451;-63
2021/03/10 07:43:39;;;;;;;9.10;6.22;;;;;;;15.14;6.66;100751.44;5051609;28;20033;-63
2021/03/10 07:46:16;;;;;;;8.55;6.30;;;;;;;14.55;6.91;100719.44;5033048;28;20037;-62
2021/03/10 07:48:42;;;;;;;11.18;6.90;;;;;;;14.94;6.80;100740.50;5051591;28;20033;-59
2021/03/10 07:51:07;;;;;;;7.82;5.78;;;;;;;14.60;6.90;100743.31;5051761;28;20043;-63
2021/03/10 07:53:39;;;;;;;9.68;6.22;;;;;;;13.88;6.61;100741.00;5047873;28;20531;-58
2021/03/10 07:56:05;;;;;;;7.00;5.38;;;;;;;13.11;7.09;100744.28;5048509;28;20041;-62
2021/03/10 07:58:31;;;;;;;8.13;5.63;;;;;;;12.23;7.15;100746.31;5050124;28;20568;-63
2021/03/10 08:00:59;;;;;;;8.18;5.90;;;;;;;9.90;7.94;100744.88;5038871;28;20186;-63
2021/03/10 08:03:32;;;;;;;12.35;6.57;;;;;;;7.20;9.43;100754.78;5047752;28;22665;-66
2021/03/10 08:06:05;;;;;;;9.57;6.28;;;;;;;4.29;10.78;100766.94;5035699;28;20040;-66
2021/03/10 08:08:49;;;;;;;10.88;6.03;;;;;;;1.20;12.96;100763.75;5049154;28;20045;-68
2021/03/10 08:11:17;;;;;;;10.05;5.13;;;;;;;-0.94;13.95;100777.19;5027957;28;20561;-65
2021/03/10 08:13:44;;;;;;;9.55;5.15;;;;;;;-3.07;15.09;100725.81;5043856;28;20056;-63
2021/03/10 08:16:11;;;;;;;12.10;6.25;;;;;;;-4.30;16.40;100765.06;5049269;28;20044;-60
2021/03/10 08:18:39;;;;;;;9.65;5.25;;;;;;;-5.45;17.05;100780.91;5050879;28;20123;-57
2021/03/10 08:21:16;;;;;;;12.38;5.28;;;;;;;-6.73;18.98;100692.84;5060626;28;20040;-63
2021/03/10 08:23:42;;;;;;;9.82;5.35;;;;;;;-6.70;18.49;100797.03;5040130;28;20063;-67
2021/03/10 08:26:08;;;;;;;10.07;4.95;;;;;;;-7.83;19.04;100699.06;5032912;28;20159;-60
2021/03/10 08:28:39;;;;;;;13.88;5.80;;;;;;;-7.71;20.26;100783.22;5041643;28;20520;-72
2021/03/10 08:31:10;;;;;;;9.55;5.03;;;;;;;-8.27;20.98;100760.09;5051794;28;20037;-67
2021/03/10 08:33:46;;;;;;;11.02;4.70;;;;;;;-8.32;21.23;100787.75;5046254;28;20099;-66
2021/03/10 08:36:13;;;;;;;12.20;4.82;;;;;;;-8.44;21.52;100797.97;5048972;28;20524;-64
2021/03/10 08:38:42;;;;;;;12.30;4.82;;;;;;;-8.66;21.63;100800.34;5046771;28;20140;-59
2021/03/10 08:41:09;;;;;;;12.18;5.10;;;;;;;-8.71;21.67;100796.78;5035503;28;20112;-55
2021/03/10 08:43:35;;;;;;;10.30;4.82;;;;;;;-8.74;21.89;100801.94;5049463;28;20040;-62
2021/03/10 08:46:02;;;;;;;14.18;5.63;;;;;;;-8.73;21.93;100807.16;5048566;28;20044;-64
2021/03/10 08:48:33;;;;;;;15.20;5.70;;;;;;;-8.67;22.19;100811.59;5031665;28;20064;-63
2021/03/10 08:51:04;;;;;;;12.15;4.63;;;;;;;-8.53;21.71;100796.19;5048030;28;20037;-64
2021/03/10 08:53:30;;;;;;;9.55;4.75;;;;;;;-8.37;21.63;100807.63;5048495;28;21190;-63
2021/03/10 08:56:06;;;;;;;13.35;4.65;;;;;;;-8.34;22.45;100801.56;5048525;28;20045;-62
2021/03/10 08:58:32;;;;;;;12.70;4.95;;;;;;;-8.59;21.59;100791.78;5047644;28;20037;-69
2021/03/10 09:00:58;;;;;;;10.05;4.80;;;;;;;-8.62;22.79;100814.22;5030688;28;20059;-64
2021/03/10 09:03:23;;;;;;;10.02;4.80;;;;;;;-8.75;22.69;100806.28;5041956;28;20032;-63
2021/03/10 09:05:50;;;;;;;12.40;4.95;;;;;;;-8.76;23.06;100803.63;5046801;28;20052;-64
2021/03/10 09:08:21;;;;;;;12.45;4.47;;;;;;;-8.74;23.10;100817.50;5048992;28;20040;-65
2021/03/10 09:10:52;;;;;;;11.20;4.63;;;;;;;-8.98;24.04;100818.88;5030819;28;21322;-64
2021/03/10 09:13:22;;;;;;;12.70;4.43;;;;;;;-9.41;23.99;100775.84;5030195;28;20044;-64
2021/03/10 09:15:49;;;;;;;11.20;4.80;;;;;;;-9.11;23.71;100816.13;5039683;28;20399;-61
2021/03/10 09:18:14;;;;;;;11.15;4.65;;;;;;;-9.06;23.93;100826.53;5046969;28;20599;-64
2021/03/10 09:20:42;;;;;;;13.52;5.28;;;;;;;-8.97;23.63;100815.44;5045693;28;20109;-59
2021/03/10 09:23:09;;;;;;;10.65;4.88;;;;;;;-8.98;23.43;100817.19;5049238;28;20454;-61
2021/03/10 09:25:40;;;;;;;11.10;4.28;;;;;;;-9.02;24.08;100845.66;5046595;28;20033;-60
2021/03/10 09:28:13;;;;;;;11.65;4.95;;;;;;;-9.23;24.16;100803.81;5040640;28;20060;-59
2021/03/10 09:30:50;;;;;;;11.95;5.20;;;;;;;-9.22;24.41;100825.44;5012947;28;20069;-61
2021/03/10 09:33:21;;;;;;;12.35;4.65;;;;;;;-9.21;24.41;100829.75;5042065;28;20040;-63
2021/03/10 09:35:57;;;;;;;10.52;4.30;;;;;;;-9.22;24.38;100833.22;5030327;28;20041;-66
2021/03/10 09:38:23;;;;;;;10.45;4.53;;;;;;;-9.45;24.28;100804.31;5031870;28;20044;-64
2021/03/10 09:40:53;;;;;;;9.75;4.43;;;;;;;-9.68;25.19;100797.84;5032145;28;20155;-58
2021/03/10 09:43:21;;;;;;;10.40;4.38;;;;;;;-9.61;24.88;100808.34;5037641;28;20033;-62
2021/03/10 09:45:49;;;;;;;13.98;5.18;;;;;;;-9.37;24.72;100826.94;5030755;28;20431;-60
2021/03/10 09:48:26;;;;;;;11.48;5.32;;;;;;;-9.35;24.70;100816.56;5047088;28;20033;-63
2021/03/10 09:50:52;;;;;;;12.13;4.95;;;;;;;-9.09;24.68;100842.97;5052531;28;20404;-60
2021/03/10 09:53:25;;;;;;;11.85;4.55;;;;;;;-9.05;24.72;100827.44;5048826;28;20031;-63
2021/03/10 09:55:52;;;;;;;13.15;5.40;;;;;;;-9.28;25.10;100823.63;5016935;28;20404;-64
2021/03/10 09:58:18;;;;;;;9.93;4.47;;;;;;;-9.31;25.35;100827.88;5052550;28;20440;-62
2021/03/10 10:00:44;;;;;;;12.32;4.82;;;;;;;-9.24;25.04;100820.22;5034479;28;20028;-66
2021/03/10 10:03:24;;;;;;;14.50;4.93;;;;;;;-9.03;24.78;100817.94;5034165;28;20029;-65
2021/03/10 10:05:49;;;;;;;9.13;4.00;;;;;;;-9.02;24.50;100817.09;5043390;28;20043;-56
2021/03/10 10:08:15;;;;;;;17.48;5.03;;;;;;;-9.11;24.70;100797.94;5051966;28;20048;-63
2021/03/10 10:10:42;;;;;;;8.35;4.53;;;;;;;-9.01;25.17;100830.13;5032399;28;20194;-67
2021/03/10 10:13:08;;;;;;;11.07;4.25;;;;;;;-9.00;24.85;100834.44;5051173;28;20029;-61
2021/03/10 10:15:34;;;;;;;8.95;4.20;;;;;;;-8.96;24.38;100833.66;5049496;28;20513;-57
2021/03/10 10:18:02;;;;;;;9.35;4.70;;;;;;;-8.98;24.77;100824.06;5033922;28;20029;-57
2021/03/10 10:20:30;;;;;;;8.68;4.47;;;;;;;-9.71;24.92;100717.44;5047958;28;20033;-55
2021/03/10 10:22:56;;;;;;;11.05;4.28;;;;;;;-9.19;24.88;100809.06;5050238;28;20086;-64
2021/03/10 10:25:22;;;;;;;8.32;4.35;;;;;;;-9.13;24.77;100811.75;5032730;28;20409;-62
2021/03/10 10:27:49;;;;;;;7.45;3.95;;;;;;;-9.06;25.16;100816.16;5050829;28;20043;-65
2021/03/10 10:30:18;;;;;;;9.52;4.18;;;;;;;-9.09;24.96;100806.63;5034193;28;20037;-59
2021/03/10 10:32:45;;;;;;;7.57;4.03;;;;;;;-9.07;24.84;100801.44;5051481;28;20037;-66
2021/03/10 10:35:12;;;;;;;8.98;4.38;;;;;;;-9.04;24.78;100808.41;5051246;28;20488;-66
2021/03/10 10:37:38;;;;;;;15.15;5.65;;;;;;;-9.20;25.25;100778.78;5051331;28;20052;-66
2021/03/10 10:40:07;;;;;;;13.15;5.70;;;;;;;-9.20;25.66;100810.75;5053219;28;20139;-64
2021/03/10 10:42:32;;;;;;;10.98;4.60;;;;;;;-9.10;25.41;100810.06;5031802;28;20375;-64
2021/03/10 10:44:58;;;;;;;8.30;3.95;;;;;;;-9.03;25.51;100792.88;5033082;28;20424;-62
2021/03/10 10:47:23;;;;;;;9.77;4.75;;;;;;;-8.98;25.41;100813.69;5030854;28;20036;-64
2021/03/10 10:49:49;;;;;;;11.88;4.75;;;;;;;-9.19;25.72;100778.78;5033048;28;20040;-61
2021/03/10 10:52:15;;;;;;;13.05;4.78;;;;;;;-8.95;25.29;100800.75;5049753;28;20090;-61
2021/03/10 10:54:40;;;;;;;11.98;4.25;;;;;;;-8.98;25.52;100786.03;5048502;28;20021;-67
2021/03/10 10:57:06;;;;;;;8.98;4.40;;;;;;;-8.88;25.05;100781.84;5049658;28;20053;-67
2021/03/10 10:59:32;;;;;;;12.02;4.45;;;;;;;-8.69;24.87;100797.69;5050509;28;20846;-63
2021/03/10 11:01:58;;;;;;;15.00;5.30;;;;;;;-8.67;25.19;100816.78;5048380;28;20120;-56
2021/03/10 11:04:23;;;;;;;15.48;5.63;;;;;;;-8.77;25.51;100805.38;5031581;28;20032;-59
2021/03/10 11:06:49;;;;;;;18.25;4.68;;;;;;;-8.78;25.33;100795.84;5016415;28;20049;-61
2021/03/10 11:09:14;;;;;;;14.85;4.55;;;;;;;-9.33;25.44;100708.53;5049312;28;20036;-61
2021/03/10 11:11:40;;;;;;;13.75;4.93;;;;;;;-8.86;25.12;100805.22;5033142;28;20053;-60
2021/03/10 11:14:05;;;;;;;12.60;4.03;;;;;;;-8.95;25.66;100795.56;5032022;28;20037;-67
2021/03/10 11:16:31;;;;;;;13.20;4.82;;;;;;;-8.90;25.36;100826.78;5035736;28;20043;-71
2021/03/10 11:18:57;;;;;;;11.40;4.30;;;;;;;-8.97;25.77;100810.25;5044923;28;20036;-68
2021/03/10 11:21:22;;;;;;;8.63;4.05;;;;;;;-8.97;25.75;100803.34;5025933;28;20139;-66